Flight Track Log - Related Links

Times and Time Zones

All times are in EDT time to prevent confusion due to time zone crossing. See the EJA727 flight status page for this flight to view local times or setup timezone preferences in your user account.

Time Position Orientation Groundspeed Altitude Reporting Facility
EDT Latitude Longitude Course Direction KTS MPH feet Rate Location/Type
Tue 05:37:00 PM 43.8881 -114.9700 308° West  Level Estimated
Tue 05:37:57 PM 43.3600 -114.2775 319° Northwest 300 345 12,700  Level Salt Lake Center
Tue 05:38:00 PM 43.9518 -115.0833 308° West  Level Estimated
Tue 05:38:59 PM 43.2981 -114.3486 220° Southwest 296 341 16,200  Level Salt Lake Center
Tue 05:39:00 PM 44.0154 -115.1968 308° West  Level Estimated
Tue 05:40:00 PM 44.0788 -115.3105 324° Northwest  Level Estimated
Tue 05:40:01 PM 43.2889 -114.4783 264° West 337 388 17,700  Level Salt Lake Center
Tue 05:41:00 PM 44.1421 -115.4245 322° Northwest  Level Estimated
Tue 05:41:03 PM 43.3525 -114.5928 307° West 365 420 20,400  Level Salt Lake Center
Tue 05:42:00 PM 44.2198 -115.5198 319° Northwest  Level FlightAware Approximate
Tue 05:42:05 PM 43.4244 -114.7147 309° West 386 444 23,000  Level Salt Lake Center
Tue 05:43:00 PM 44.2975 -115.6153 319° Northwest  Level FlightAware Approximate
Tue 05:43:07 PM 43.4931 -114.8342 308° West 397 457 25,500  Level Salt Lake Center
Tue 05:44:09 PM 43.5644 -114.9567 309° West 405 466 28,000 1,887 Climbing Salt Lake Center
Tue 05:45:11 PM 43.6367 -115.0814 309° West 417 480 29,400 1,403 Climbing Salt Lake Center
Tue 05:46:13 PM 43.7119 -115.2136 308° West 433 498 30,900 1,403 Climbing Salt Lake Center
Tue 05:47:15 PM 43.7875 -115.3456 308° West 436 502 32,300 1,306 Climbing Salt Lake Center
Tue 05:48:17 PM 43.8792 -115.5089 308° West 445 512 33,600 1,161 Climbing Salt Lake Center
Tue 05:49:19 PM 43.9561 -115.6453 308° West 449 517 34,700 1,065 Climbing Salt Lake Center
Tue 05:50:21 PM 44.0336 -115.7828 308° West 451 519 35,800 624 Climbing Salt Lake Center
Tue 05:51:24 PM 44.1094 -115.9197 308° West 449 517 36,000 96 Climbing Salt Lake Center
Tue 05:52:26 PM 44.1839 -116.0544 308° West 443 510 36,000  Level Salt Lake Center
Tue 05:53:28 PM 44.2558 -116.1878 307° West 430 495 36,000  Level Salt Lake Center
Tue 05:54:30 PM 44.3278 -116.3231 307° West 429 494 36,000  Level Salt Lake Center
Tue 05:55:32 PM 44.4008 -116.4567 307° West 428 493 36,000  Level Salt Lake Center
Tue 05:56:34 PM 44.4872 -116.6125 308° West 425 489 36,000  Level Salt Lake Center
Tue 05:57:36 PM 44.5575 -116.7439 307° West 423 487 36,000  Level Salt Lake Center
Tue 05:58:38 PM 44.6283 -116.8739 307° West 422 486 36,000  Level Salt Lake Center
Tue 05:59:40 PM 44.6983 -117.0058 307° West 422 486 36,000  Level Salt Lake Center
Tue 06:00:42 PM 44.7689 -117.1367 307° West 421 484 36,000  Level Salt Lake Center
Tue 06:01:44 PM 44.8394 -117.2683 307° West 421 484 36,000  Level Salt Lake Center
Tue 06:02:46 PM 44.9222 -117.4267 306° West 421 484 36,000  Level Salt Lake Center
Tue 06:03:48 PM 44.9922 -117.5583 307° West 421 484 36,000  Level Salt Lake Center
Tue 06:04:50 PM 45.0603 -117.6900 306° West 420 483 36,000  Level Salt Lake Center
Tue 06:05:52 PM 45.1300 -117.8222 307° West 420 483 36,000  Level Salt Lake Center
Tue 06:06:54 PM 45.2033 -117.9631 306° West 419 482 36,000  Level Salt Lake Center
Tue 06:07:56 PM 45.2711 -118.0944 306° West 418 481 36,000  Level Salt Lake Center
Tue 06:08:58 PM 45.3392 -118.2269 306° West 417 480 36,000  Level Salt Lake Center
Tue 06:10:00 PM 45.4058 -118.3586 306° West 417 480 36,000  Level Salt Lake Center
Tue 06:11:02 PM 45.4878 -118.5200 306° West 420 483 36,000  Level Salt Lake Center
Tue 06:12:04 PM 45.5553 -118.6533 306° West 419 482 36,000  Level Salt Lake Center
Tue 06:13:06 PM 45.6231 -118.7872 306° West 419 482 36,000  Level Salt Lake Center
Tue 06:14:08 PM 45.6911 -118.9219 306° West 419 482 36,000  Level Salt Lake Center
Tue 06:15:10 PM 45.7647 -119.0525 309° West 420 483 36,000  Level Salt Lake Center
Tue 06:16:24 PM 45.8558 -119.2036 311° West 423 487 36,000  Level Seattle Center
Tue 06:17:26 PM 45.9464 -119.3603 310° West 423 487 36,000  Level Seattle Center
Tue 06:18:27 PM 46.0217 -119.4889 310° West 424 488 36,000  Level Seattle Center
Tue 06:19:28 PM 46.0981 -119.6183 310° West 424 488 36,000 -49 Level Seattle Center
Tue 06:20:29 PM 46.1725 -119.7475 310° West 424 488 35,900 -976 Descending Seattle Center
Tue 06:21:31 PM 46.2483 -119.8800 310° West 426 490 34,000 -1,854 Descending Seattle Center
Tue 06:22:32 PM 46.3269 -120.0175 310° West 441 507 32,100 -1,869 Descending Seattle Center
Tue 06:23:33 PM 46.4044 -120.1542 309° West 444 511 30,200 -1,869 Descending Seattle Center
Tue 06:24:34 PM 46.4825 -120.2903 310° West 443 510 28,300 -2,000 Descending Seattle Center
Tue 06:25:36 PM 46.5736 -120.4522 309° West 435 501 26,100 -1,854 Descending Seattle Center
Tue 06:26:37 PM 46.6389 -120.5911 304° West 420 483 24,500 -1,820 Descending Seattle Center
Tue 06:27:38 PM 46.7044 -120.7267 305° West 415 478 22,400 -2,049 Descending Seattle Center
Tue 06:28:40 PM 46.7678 -120.8636 304° West 410 472 20,300 -2,049 Descending Seattle Center
Tue 06:29:41 PM 46.8308 -120.9975 305° West 405 466 18,200 -2,213 Descending Seattle Center
Tue 06:30:42 PM 46.9000 -121.1411 305° West 373 429 15,800 -2,213 Descending Seattle Center
Tue 06:31:43 PM 46.9564 -121.2606 305° West 359 413 13,700 -2,083 Descending Seattle Center
Tue 06:31:54 PM 46.9650 -121.2819 301° West 336 387 13,300 -2,066 Descending Seattle Center
Tue 06:32:44 PM 47.0078 -121.3714 305° West 329 379 11,600 -1,725 Descending Seattle Center
Tue 06:33:14 PM 47.0289 -121.4219 302° West 312 359 11,000 -581 Descending Seattle Center
Tue 06:33:46 PM 47.0547 -121.4764 305° West 304 350 11,000  Level Seattle Center
Tue 06:34:09 PM 47.0733 -121.5144 306° West 292 336 11,000 -1,400 Level Seattle Center
Tue 06:35:16 PM 47.1231 -121.6269 303° West 302 348 8,900 -2,000 Descending Seattle Center
Tue 06:35:48 PM 47.1481 -121.6772 306° West 297 342 7,700 -2,361 Descending Seattle Center
Tue 06:36:17 PM 47.1722 -121.7300 304° West 290 334 6,500 -1,672 Descending Seattle Center
Tue 06:36:49 PM 47.1950 -121.7786 305° West 282 325 6,000 -492 Descending Seattle Center
Tue 06:37:18 PM 47.2139 -121.8211 303° West 266 306 6,000  Level Seattle Center
Tue 06:37:50 PM 47.2356 -121.8706 303° West 271 312 6,000  Level Seattle Center
Tue 06:38:18 PM 47.2542 -121.9164 301° West 270 311 6,000 -194 Level Seattle Center
Tue 06:38:52 PM 47.2758 -121.9658 303° West 274 315 5,800 -873 Descending Seattle Center
Tue 06:39:13 PM 47.2903 -122.0042 299° West 274 315 5,200 -1,574 Descending Seattle Center
Tue 06:39:53 PM 47.3136 -122.0592 302° West 267 307 4,200 -1,075 Descending Seattle Center
Tue 06:40:20 PM 47.3311 -122.1028 301° West 261 300 4,000 -393 Descending Seattle Center
Tue 06:40:54 PM 47.3569 -122.1508 308° West 256 295 3,800 -689 Descending Seattle Center
Tue 06:41:21 PM 47.3792 -122.1775 321° Northwest 237 273 3,300 -1,180 Descending Seattle Center
Tue 06:41:55 PM 47.4064 -122.1994 331° Northwest 212 244 2,600 -1,082 Descending Seattle Center
Tue 06:42:22 PM 47.4269 -122.2167 330° Northwest 176 203 2,200 -885 Descending Seattle Center
Tue 06:42:56 PM 47.4486 -122.2339 332° Northwest 180 207 1,700 -885 Descending Seattle Center
Tue 06:43:23 PM 47.4647 -122.2514 324° Northwest 153 176 1,300 -871 Descending Seattle Center
Tue 06:43:58 PM 47.4872 -122.2675 334° Northwest 154 177 800 -787 Descending Seattle Center
Tue 06:44:24 PM 47.5003 -122.2778 332° Northwest 140 161 500 -689 Descending Seattle Center
Tue 06:44:59 PM 47.5175 -122.2914 332° Northwest 141 162 100 -686 Descending Seattle Center
Tue 06:47:00 PM 47.5167 -122.3000 326° Northwest  Level FlightAware Approximate

Login

Don't have an account? Register now (free) for customized features, flight alerts, and more!